sensor_id;sensor_type;location;lat;lon;timestamp;pressure;altitude;pressure_sealevel;temperature
72054;BMP280;59918;51.280;7.950;2023-05-07T00:02:14;98049.41;;;13.72
72054;BMP280;59918;51.280;7.950;2023-05-07T00:04:39;98053.59;;;13.73
72054;BMP280;59918;51.280;7.950;2023-05-07T00:07:05;98053.34;;;13.74
72054;BMP280;59918;51.280;7.950;2023-05-07T00:09:30;98051.56;;;13.75
72054;BMP280;59918;51.280;7.950;2023-05-07T00:11:55;98058.50;;;13.74
72054;BMP280;59918;51.280;7.950;2023-05-07T00:14:20;98055.72;;;13.76
72054;BMP280;59918;51.280;7.950;2023-05-07T00:16:48;98057.88;;;13.79
72054;BMP280;59918;51.280;7.950;2023-05-07T00:19:14;98057.31;;;13.77
72054;BMP280;59918;51.280;7.950;2023-05-07T00:21:39;98059.91;;;13.77
72054;BMP280;59918;51.280;7.950;2023-05-07T00:24:04;98059.91;;;13.77
72054;BMP280;59918;51.280;7.950;2023-05-07T00:26:30;98063.25;;;13.77
72054;BMP280;59918;51.280;7.950;2023-05-07T00:28:55;98059.91;;;13.77
72054;BMP280;59918;51.280;7.950;2023-05-07T00:31:20;98063.84;;;13.79
72054;BMP280;59918;51.280;7.950;2023-05-07T00:33:49;98056.88;;;13.80
72054;BMP280;59918;51.280;7.950;2023-05-07T00:36:14;98066.84;;;13.76
72054;BMP280;59918;51.280;7.950;2023-05-07T00:38:39;98064.25;;;13.76
72054;BMP280;59918;51.280;7.950;2023-05-07T00:41:04;98063.69;;;13.74
72054;BMP280;59918;51.280;7.950;2023-05-07T00:43:30;98064.50;;;13.75
72054;BMP280;59918;51.280;7.950;2023-05-07T00:45:55;98061.34;;;13.73
72054;BMP280;59918;51.280;7.950;2023-05-07T00:48:20;98056.38;;;13.71
72054;BMP280;59918;51.280;7.950;2023-05-07T00:50:49;98054.56;;;13.72
72054;BMP280;59918;51.280;7.950;2023-05-07T00:53:14;98060.75;;;13.71
72054;BMP280;59918;51.280;7.950;2023-05-07T00:55:42;98049.63;;;13.70
72054;BMP280;59918;51.280;7.950;2023-05-07T00:58:08;98048.84;;;13.70
72054;BMP280;59918;51.280;7.950;2023-05-07T01:00:33;98056.59;;;13.70
72054;BMP280;59918;51.280;7.950;2023-05-07T01:03:01;98046.25;;;13.70
72054;BMP280;59918;51.280;7.950;2023-05-07T01:05:27;98048.06;;;13.69
72054;BMP280;59918;51.280;7.950;2023-05-07T01:07:54;98045.47;;;13.69
72054;BMP280;59918;51.280;7.950;2023-05-07T01:10:20;98035.91;;;13.70
72054;BMP280;59918;51.280;7.950;2023-05-07T01:12:49;98031.97;;;13.67
72054;BMP280;59918;51.280;7.950;2023-05-07T01:15:15;98032.75;;;13.68
72054;BMP280;59918;51.280;7.950;2023-05-07T01:17:41;98027.81;;;13.66
72054;BMP280;59918;51.280;7.950;2023-05-07T01:20:08;98028.59;;;13.67
72054;BMP280;59918;51.280;7.950;2023-05-07T01:22:40;98028.25;;;13.63
72054;BMP280;59918;51.280;7.950;2023-05-07T01:25:06;98038.00;;;13.61
72054;BMP280;59918;51.280;7.950;2023-05-07T01:27:32;98030.25;;;13.61
72054;BMP280;59918;51.280;7.950;2023-05-07T01:29:57;98036.22;;;13.62
72054;BMP280;59918;51.280;7.950;2023-05-07T01:34:57;98038.44;;;13.58
72054;BMP280;59918;51.280;7.950;2023-05-07T01:37:26;98040.81;;;13.60
72054;BMP280;59918;51.280;7.950;2023-05-07T01:39:52;98040.81;;;13.60
72054;BMP280;59918;51.280;7.950;2023-05-07T01:42:18;98043.38;;;13.60
72054;BMP280;59918;51.280;7.950;2023-05-07T01:44:44;98040.03;;;13.59
72054;BMP280;59918;51.280;7.950;2023-05-07T01:47:10;98037.66;;;13.58
72054;BMP280;59918;51.280;7.950;2023-05-07T01:49:37;98038.44;;;13.58
72054;BMP280;59918;51.280;7.950;2023-05-07T01:52:03;98039.66;;;13.56
72054;BMP280;59918;51.280;7.950;2023-05-07T01:54:28;98040.44;;;13.56
72054;BMP280;59918;51.280;7.950;2023-05-07T01:56:56;98048.44;;;13.55
72054;BMP280;59918;51.280;7.950;2023-05-07T01:59:25;98050.44;;;13.53
72054;BMP280;59918;51.280;7.950;2023-05-07T02:01:50;98054.47;;;13.49
72054;BMP280;59918;51.280;7.950;2023-05-07T02:04:15;98046.91;;;13.48
72054;BMP280;59918;51.280;7.950;2023-05-07T02:06:41;98045.56;;;13.45
72054;BMP280;59918;51.280;7.950;2023-05-07T02:09:06;98045.00;;;13.43
72054;BMP280;59918;51.280;7.950;2023-05-07T02:11:31;98037.44;;;13.42
72054;BMP280;59918;51.280;7.950;2023-05-07T02:13:57;98038.69;;;13.39
72054;BMP280;59918;51.280;7.950;2023-05-07T02:16:25;98039.47;;;13.40
72054;BMP280;59918;51.280;7.950;2023-05-07T02:18:51;98039.09;;;13.36
72054;BMP280;59918;51.280;7.950;2023-05-07T02:21:16;98033.56;;;13.33
72054;BMP280;59918;51.280;7.950;2023-05-07T02:23:41;98034.59;;;13.32
72054;BMP280;59918;51.280;7.950;2023-05-07T02:26:07;98032.78;;;13.32
72054;BMP280;59918;51.280;7.950;2023-05-07T02:28:32;98029.22;;;13.33
72054;BMP280;59918;51.280;7.950;2023-05-07T02:30:57;98031.78;;;13.33
72054;BMP280;59918;51.280;7.950;2023-05-07T02:33:31;98025.81;;;13.33
72054;BMP280;59918;51.280;7.950;2023-05-07T02:35:56;98026.06;;;13.31
72054;BMP280;59918;51.280;7.950;2023-05-07T02:38:22;98023.22;;;13.33
72054;BMP280;59918;51.280;7.950;2023-05-07T02:40:51;98017.06;;;13.34
72054;BMP280;59918;51.280;7.950;2023-05-07T02:43:16;98028.19;;;13.34
72054;BMP280;59918;51.280;7.950;2023-05-07T02:45:41;98029.78;;;13.35
72054;BMP280;59918;51.280;7.950;2023-05-07T02:48:06;98022.81;;;13.36
72054;BMP280;59918;51.280;7.950;2023-05-07T02:50:32;98031.78;;;13.33
72054;BMP280;59918;51.280;7.950;2023-05-07T02:53:06;98036.16;;;13.33
72054;BMP280;59918;51.280;7.950;2023-05-07T02:55:31;98036.38;;;13.31
72054;BMP280;59918;51.280;7.950;2023-05-07T02:57:56;98037.16;;;13.32
72054;BMP280;59918;51.280;7.950;2023-05-07T03:00:22;98029.63;;;13.30
72054;BMP280;59918;51.280;7.950;2023-05-07T03:02:50;98026.06;;;13.31
72054;BMP280;59918;51.280;7.950;2023-05-07T03:05:15;98029.63;;;13.30
72054;BMP280;59918;51.280;7.950;2023-05-07T03:07:40;98035.22;;;13.27
72054;BMP280;59918;51.280;7.950;2023-05-07T03:10:07;98030.28;;;13.26
72054;BMP280;59918;51.280;7.950;2023-05-07T03:12:32;98032.69;;;13.21
72054;BMP280;59918;51.280;7.950;2023-05-07T03:14:57;98032.91;;;13.19
72054;BMP280;59918;51.280;7.950;2023-05-07T03:17:29;98031.13;;;13.20
72054;BMP280;59918;51.280;7.950;2023-05-07T03:19:54;98025.22;;;13.13
72054;BMP280;59918;51.280;7.950;2023-05-07T03:22:19;98028.59;;;13.13
72054;BMP280;59918;51.280;7.950;2023-05-07T03:24:44;98027.03;;;13.13
72054;BMP280;59918;51.280;7.950;2023-05-07T03:27:10;98033.41;;;13.10
72054;BMP280;59918;51.280;7.950;2023-05-07T03:29:38;98035.75;;;13.12
72054;BMP280;59918;51.280;7.950;2023-05-07T03:32:03;98028.03;;;13.12
72054;BMP280;59918;51.280;7.950;2023-05-07T03:34:29;98028.03;;;13.12
72054;BMP280;59918;51.280;7.950;2023-05-07T03:36:54;98027.03;;;13.13
72054;BMP280;59918;51.280;7.950;2023-05-07T03:39:19;98026.25;;;13.12
72054;BMP280;59918;51.280;7.950;2023-05-07T03:41:44;98025.22;;;13.13
72054;BMP280;59918;51.280;7.950;2023-05-07T03:44:10;98029.41;;;13.14
72054;BMP280;59918;51.280;7.950;2023-05-07T03:46:38;98023.44;;;13.13
72054;BMP280;59918;51.280;7.950;2023-05-07T03:49:03;98028.59;;;13.13
72054;BMP280;59918;51.280;7.950;2023-05-07T03:51:30;98024.44;;;13.13
72054;BMP280;59918;51.280;7.950;2023-05-07T03:53:55;98029.03;;;13.11
72054;BMP280;59918;51.280;7.950;2023-05-07T03:56:20;98032.03;;;13.08
72054;BMP280;59918;51.280;7.950;2023-05-07T03:58:50;98027.88;;;13.07
72054;BMP280;59918;51.280;7.950;2023-05-07T04:01:16;98023.94;;;13.04
72054;BMP280;59918;51.280;7.950;2023-05-07T04:03:41;98033.91;;;13.01
72054;BMP280;59918;51.280;7.950;2023-05-07T04:06:06;98030.75;;;12.99
72054;BMP280;59918;51.280;7.950;2023-05-07T04:08:31;98028.81;;;12.94
72054;BMP280;59918;51.280;7.950;2023-05-07T04:10:57;98030.81;;;12.92
72054;BMP280;59918;51.280;7.950;2023-05-07T04:13:23;98035.59;;;12.89
72054;BMP280;59918;51.280;7.950;2023-05-07T04:15:52;98042.56;;;12.88
72054;BMP280;59918;51.280;7.950;2023-05-07T04:18:17;98043.75;;;12.86
72054;BMP280;59918;51.280;7.950;2023-05-07T04:20:43;98052.50;;;12.85
72054;BMP280;59918;51.280;7.950;2023-05-07T04:23:08;98057.09;;;12.83
72054;BMP280;59918;51.280;7.950;2023-05-07T04:25:41;98059.47;;;12.84
72054;BMP280;59918;51.280;7.950;2023-05-07T04:28:07;98060.25;;;12.85
72054;BMP280;59918;51.280;7.950;2023-05-07T04:33:35;98048.91;;;12.86
72054;BMP280;59918;51.280;7.950;2023-05-07T04:36:01;98052.66;;;12.90
72054;BMP280;59918;51.280;7.950;2023-05-07T04:38:27;98046.50;;;12.91
72054;BMP280;59918;51.280;7.950;2023-05-07T04:40:52;98043.94;;;12.91
72054;BMP280;59918;51.280;7.950;2023-05-07T04:43:17;98044.88;;;12.96
72054;BMP280;59918;51.280;7.950;2023-05-07T04:45:42;98047.22;;;12.98
72054;BMP280;59918;51.280;7.950;2023-05-07T04:48:14;98050.19;;;13.01
72054;BMP280;59918;51.280;7.950;2023-05-07T04:50:39;98048.94;;;13.04
72054;BMP280;59918;51.280;7.950;2023-05-07T04:53:04;98052.28;;;13.11
72054;BMP280;59918;51.280;7.950;2023-05-07T04:55:29;98056.78;;;13.15
72054;BMP280;59918;51.280;7.950;2023-05-07T04:57:55;98057.16;;;13.18
72054;BMP280;59918;51.280;7.950;2023-05-07T05:00:23;98067.41;;;13.25
72054;BMP280;59918;51.280;7.950;2023-05-07T05:02:49;98064.22;;;13.29
72054;BMP280;59918;51.280;7.950;2023-05-07T05:05:14;98062.78;;;13.33
72054;BMP280;59918;51.280;7.950;2023-05-07T05:07:39;98069.69;;;13.39
72054;BMP280;59918;51.280;7.950;2023-05-07T05:10:05;98064.63;;;13.44
72054;BMP280;59918;51.280;7.950;2023-05-07T05:12:30;98066.94;;;13.52
72054;BMP280;59918;51.280;7.950;2023-05-07T05:14:56;98067.66;;;13.59
72054;BMP280;59918;51.280;7.950;2023-05-07T05:17:24;98075.13;;;13.67
72054;BMP280;59918;51.280;7.950;2023-05-07T05:19:49;98070.66;;;13.74
72054;BMP280;59918;51.280;7.950;2023-05-07T05:22:14;98071.16;;;13.82
72054;BMP280;59918;51.280;7.950;2023-05-07T05:24:40;98075.81;;;13.91
72054;BMP280;59918;51.280;7.950;2023-05-07T05:27:05;98068.56;;;14.00
72054;BMP280;59918;51.280;7.950;2023-05-07T05:29:32;98064.09;;;14.07
72054;BMP280;59918;51.280;7.950;2023-05-07T05:31:57;98066.59;;;14.13
72054;BMP280;59918;51.280;7.950;2023-05-07T05:34:22;98057.38;;;14.17
72054;BMP280;59918;51.280;7.950;2023-05-07T05:36:56;98058.31;;;14.23
72054;BMP280;59918;51.280;7.950;2023-05-07T05:39:21;98061.03;;;14.27
72054;BMP280;59918;51.280;7.950;2023-05-07T05:41:47;98063.75;;;14.32
72054;BMP280;59918;51.280;7.950;2023-05-07T05:44:12;98068.25;;;14.37
72054;BMP280;59918;51.280;7.950;2023-05-07T05:46:37;98071.97;;;14.41
72054;BMP280;59918;51.280;7.950;2023-05-07T05:49:02;98067.72;;;14.46
72054;BMP280;59918;51.280;7.950;2023-05-07T05:51:28;98071.38;;;14.57
72054;BMP280;59918;51.280;7.950;2023-05-07T05:53:53;98070.78;;;14.66
72054;BMP280;59918;51.280;7.950;2023-05-07T05:56:18;98074.44;;;14.76
72054;BMP280;59918;51.280;7.950;2023-05-07T05:58:43;98069.25;;;14.88
72054;BMP280;59918;51.280;7.950;2023-05-07T06:01:15;98072.06;;;14.97
72054;BMP280;59918;51.280;7.950;2023-05-07T06:03:40;98071.97;;;15.04
72054;BMP280;59918;51.280;7.950;2023-05-07T06:06:05;98067.84;;;15.14
72054;BMP280;59918;51.280;7.950;2023-05-07T06:08:30;98078.41;;;15.24
72054;BMP280;59918;51.280;7.950;2023-05-07T06:10:56;98073.59;;;15.39
72054;BMP280;59918;51.280;7.950;2023-05-07T06:13:24;98076.47;;;15.54
72054;BMP280;59918;51.280;7.950;2023-05-07T06:15:49;98073.38;;;15.68
72054;BMP280;59918;51.280;7.950;2023-05-07T06:18:14;98081.72;;;15.81
72054;BMP280;59918;51.280;7.950;2023-05-07T06:20:40;98088.47;;;15.94
72054;BMP280;59918;51.280;7.950;2023-05-07T06:23:05;98088.72;;;16.08
72054;BMP280;59918;51.280;7.950;2023-05-07T06:25:30;98073.59;;;16.17
72054;BMP280;59918;51.280;7.950;2023-05-07T06:27:55;98085.75;;;16.28
72054;BMP280;59918;51.280;7.950;2023-05-07T06:30:24;98080.59;;;16.44
72054;BMP280;59918;51.280;7.950;2023-05-07T06:32:49;98086.28;;;16.57
72054;BMP280;59918;51.280;7.950;2023-05-07T06:35:15;98090.31;;;16.65
72054;BMP280;59918;51.280;7.950;2023-05-07T06:37:41;98097.50;;;16.74
72054;BMP280;59918;51.280;7.950;2023-05-07T06:40:07;98084.91;;;16.82
72054;BMP280;59918;51.280;7.950;2023-05-07T06:42:32;98094.78;;;16.85
72054;BMP280;59918;51.280;7.950;2023-05-07T06:45:01;98098.09;;;16.97
72054;BMP280;59918;51.280;7.950;2023-05-07T06:47:26;98096.22;;;17.09
72054;BMP280;59918;51.280;7.950;2023-05-07T06:49:51;98105.59;;;17.26
72054;BMP280;59918;51.280;7.950;2023-05-07T06:52:16;98109.28;;;17.47
72054;BMP280;59918;51.280;7.950;2023-05-07T06:54:42;98103.00;;;17.64
72054;BMP280;59918;51.280;7.950;2023-05-07T06:57:07;98094.94;;;17.82
72054;BMP280;59918;51.280;7.950;2023-05-07T06:59:32;98096.97;;;18.01
72054;BMP280;59918;51.280;7.950;2023-05-07T07:02:03;98096.13;;;18.17
72054;BMP280;59918;51.280;7.950;2023-05-07T07:04:28;98101.94;;;18.24
72054;BMP280;59918;51.280;7.950;2023-05-07T07:06:54;98105.09;;;18.26
72054;BMP280;59918;51.280;7.950;2023-05-07T07:09:19;98106.19;;;18.29
72054;BMP280;59918;51.280;7.950;2023-05-07T07:11:45;98104.13;;;18.31
72054;BMP280;59918;51.280;7.950;2023-05-07T07:14:16;98104.03;;;18.27
72054;BMP280;59918;51.280;7.950;2023-05-07T07:16:41;98095.81;;;18.34
72054;BMP280;59918;51.280;7.950;2023-05-07T07:19:06;98088.81;;;18.40
72054;BMP280;59918;51.280;7.950;2023-05-07T07:21:32;98083.44;;;18.46
72054;BMP280;59918;51.280;7.950;2023-05-07T07:23:57;98086.63;;;18.53
72054;BMP280;59918;51.280;7.950;2023-05-07T07:26:25;98089.38;;;18.68
72054;BMP280;59918;51.280;7.950;2023-05-07T07:28:51;98094.69;;;18.83
72054;BMP280;59918;51.280;7.950;2023-05-07T07:31:16;98095.31;;;18.95
72054;BMP280;59918;51.280;7.950;2023-05-07T07:33:41;98088.44;;;19.10
72054;BMP280;59918;51.280;7.950;2023-05-07T07:36:07;98085.34;;;19.18
72054;BMP280;59918;51.280;7.950;2023-05-07T07:38:33;98087.25;;;19.27
72054;BMP280;59918;51.280;7.950;2023-05-07T07:40:58;98096.69;;;19.38
72054;BMP280;59918;51.280;7.950;2023-05-07T07:43:26;98089.53;;;19.60
72054;BMP280;59918;51.280;7.950;2023-05-07T07:45:51;98088.28;;;19.72
72054;BMP280;59918;51.280;7.950;2023-05-07T07:48:16;98090.66;;;19.74
72054;BMP280;59918;51.280;7.950;2023-05-07T07:50:42;98093.06;;;19.85
72054;BMP280;59918;51.280;7.950;2023-05-07T07:53:07;98099.38;;;19.99
72054;BMP280;59918;51.280;7.950;2023-05-07T07:55:32;98092.38;;;20.09
72054;BMP280;59918;51.280;7.950;2023-05-07T07:57:57;98105.22;;;20.20
72054;BMP280;59918;51.280;7.950;2023-05-07T08:00:23;98107.56;;;20.22
72054;BMP280;59918;51.280;7.950;2023-05-07T08:02:51;98102.34;;;20.27
72054;BMP280;59918;51.280;7.950;2023-05-07T08:05:16;98100.81;;;20.46
72054;BMP280;59918;51.280;7.950;2023-05-07T08:07:41;98102.72;;;20.70
72054;BMP280;59918;51.280;7.950;2023-05-07T08:10:07;98092.78;;;20.96
72054;BMP280;59918;51.280;7.950;2023-05-07T08:12:32;98078.91;;;21.30
72054;BMP280;59918;51.280;7.950;2023-05-07T08:14:58;98079.34;;;21.67
72054;BMP280;59918;51.280;7.950;2023-05-07T08:17:27;98082.44;;;21.84
72054;BMP280;59918;51.280;7.950;2023-05-07T08:19:52;98086.66;;;21.75
72054;BMP280;59918;51.280;7.950;2023-05-07T08:22:17;98088.50;;;21.74
72054;BMP280;59918;51.280;7.950;2023-05-07T08:24:42;98086.91;;;21.83
72054;BMP280;59918;51.280;7.950;2023-05-07T08:27:08;98084.44;;;22.16
72054;BMP280;59918;51.280;7.950;2023-05-07T08:29:33;98086.25;;;22.21
72054;BMP280;59918;51.280;7.950;2023-05-07T08:31:58;98085.22;;;22.07
72054;BMP280;59918;51.280;7.950;2023-05-07T08:34:27;98092.28;;;22.16
72054;BMP280;59918;51.280;7.950;2023-05-07T08:36:52;98093.59;;;22.19
72054;BMP280;59918;51.280;7.950;2023-05-07T08:39:17;98093.34;;;22.15
72054;BMP280;59918;51.280;7.950;2023-05-07T08:41:44;98082.50;;;22.32
72054;BMP280;59918;51.280;7.950;2023-05-07T08:44:17;98075.44;;;22.65
72054;BMP280;59918;51.280;7.950;2023-05-07T08:46:46;98079.50;;;22.91
72054;BMP280;59918;51.280;7.950;2023-05-07T08:49:18;98076.38;;;23.17
72054;BMP280;59918;51.280;7.950;2023-05-07T08:51:43;98077.66;;;23.47
72054;BMP280;59918;51.280;7.950;2023-05-07T08:54:08;98082.66;;;23.72
72054;BMP280;59918;51.280;7.950;2023-05-07T08:56:35;98086.66;;;23.88
72054;BMP280;59918;51.280;7.950;2023-05-07T08:59:06;98073.41;;;23.98
72054;BMP280;59918;51.280;7.950;2023-05-07T09:01:31;98072.84;;;24.01
72054;BMP280;59918;51.280;7.950;2023-05-07T09:03:57;98077.34;;;24.00
72054;BMP280;59918;51.280;7.950;2023-05-07T09:06:23;98077.25;;;24.05
72054;BMP280;59918;51.280;7.950;2023-05-07T09:08:54;98073.00;;;24.09
72054;BMP280;59918;51.280;7.950;2023-05-07T09:11:23;98074.25;;;24.12
72054;BMP280;59918;51.280;7.950;2023-05-07T09:13:56;98079.25;;;24.13
72054;BMP280;59918;51.280;7.950;2023-05-07T09:16:22;98085.66;;;24.25
72054;BMP280;59918;51.280;7.950;2023-05-07T09:18:52;98073.97;;;24.36
72054;BMP280;59918;51.280;7.950;2023-05-07T09:21:21;98080.22;;;24.40
72054;BMP280;59918;51.280;7.950;2023-05-07T09:23:54;98071.13;;;24.33
72054;BMP280;59918;51.280;7.950;2023-05-07T09:26:23;98085.03;;;24.33
72054;BMP280;59918;51.280;7.950;2023-05-07T09:28:55;98078.16;;;24.37
72054;BMP280;59918;51.280;7.950;2023-05-07T09:31:20;98083.69;;;24.54
72054;BMP280;59918;51.280;7.950;2023-05-07T09:33:46;98084.56;;;24.99
72054;BMP280;59918;51.280;7.950;2023-05-07T09:36:11;98076.97;;;25.43
72054;BMP280;59918;51.280;7.950;2023-05-07T09:38:43;98076.78;;;25.53
72054;BMP280;59918;51.280;7.950;2023-05-07T09:41:10;98078.19;;;25.90
72054;BMP280;59918;51.280;7.950;2023-05-07T09:43:36;98075.44;;;26.08
72054;BMP280;59918;51.280;7.950;2023-05-07T09:46:11;98066.28;;;26.06
72054;BMP280;59918;51.280;7.950;2023-05-07T09:48:48;98068.44;;;25.77
72054;BMP280;59918;51.280;7.950;2023-05-07T09:51:29;98065.28;;;25.49
72054;BMP280;59918;51.280;7.950;2023-05-07T09:53:56;98064.88;;;25.42
72054;BMP280;59918;51.280;7.950;2023-05-07T09:56:22;98063.75;;;25.74
72054;BMP280;59918;51.280;7.950;2023-05-07T09:58:48;98060.97;;;26.19
72054;BMP280;59918;51.280;7.950;2023-05-07T10:01:17;98063.94;;;26.04
72054;BMP280;59918;51.280;7.950;2023-05-07T10:03:43;98067.94;;;25.62
72054;BMP280;59918;51.280;7.950;2023-05-07T10:06:09;98077.09;;;25.65
72054;BMP280;59918;51.280;7.950;2023-05-07T10:08:36;98070.66;;;25.84
72054;BMP280;59918;51.280;7.950;2023-05-07T10:11:04;98070.38;;;25.85
72054;BMP280;59918;51.280;7.950;2023-05-07T10:13:33;98070.47;;;25.80
72054;BMP280;59918;51.280;7.950;2023-05-07T10:15:59;98067.41;;;25.47
72054;BMP280;59918;51.280;7.950;2023-05-07T10:18:31;98070.34;;;25.32
72054;BMP280;59918;51.280;7.950;2023-05-07T10:21:07;98074.34;;;25.43
72054;BMP280;59918;51.280;7.950;2023-05-07T10:23:33;98073.22;;;26.72
72054;BMP280;59918;51.280;7.950;2023-05-07T10:26:01;98078.25;;;26.60
72054;BMP280;59918;51.280;7.950;2023-05-07T10:28:29;98070.06;;;26.27
72054;BMP280;59918;51.280;7.950;2023-05-07T10:33:30;98073.44;;;25.21
72054;BMP280;59918;51.280;7.950;2023-05-07T10:35:58;98074.72;;;24.92
72054;BMP280;59918;51.280;7.950;2023-05-07T10:38:27;98066.56;;;24.75
72054;BMP280;59918;51.280;7.950;2023-05-07T10:40:53;98071.66;;;24.66
72054;BMP280;59918;51.280;7.950;2023-05-07T10:43:19;98069.97;;;24.57
72054;BMP280;59918;51.280;7.950;2023-05-07T10:46:10;98081.72;;;24.46
72054;BMP280;59918;51.280;7.950;2023-05-07T10:51:30;98078.88;;;24.19
72054;BMP280;59918;51.280;7.950;2023-05-07T10:56:42;98085.00;;;23.97
72054;BMP280;59918;51.280;7.950;2023-05-07T11:04:20;98084.41;;;23.53
72054;BMP280;59918;51.280;7.950;2023-05-07T11:09:56;98087.69;;;23.41
72054;BMP280;59918;51.280;7.950;2023-05-07T11:15:05;98088.69;;;23.44
72054;BMP280;59918;51.280;7.950;2023-05-07T11:17:32;98090.03;;;23.42
72054;BMP280;59918;51.280;7.950;2023-05-07T11:19:57;98087.16;;;23.44
72054;BMP280;59918;51.280;7.950;2023-05-07T11:25:00;98074.56;;;23.41
72054;BMP280;59918;51.280;7.950;2023-05-07T11:27:28;98076.66;;;23.44
72054;BMP280;59918;51.280;7.950;2023-05-07T11:29:56;98070.47;;;23.58
72054;BMP280;59918;51.280;7.950;2023-05-07T11:32:29;98076.00;;;23.80
72054;BMP280;59918;51.280;7.950;2023-05-07T11:34:56;98072.38;;;24.72
72054;BMP280;59918;51.280;7.950;2023-05-07T11:37:23;98067.75;;;25.85
72054;BMP280;59918;51.280;7.950;2023-05-07T11:40:05;98072.84;;;26.43
72054;BMP280;59918;51.280;7.950;2023-05-07T11:42:31;98073.91;;;26.42
72054;BMP280;59918;51.280;7.950;2023-05-07T11:44:57;98062.84;;;26.05
72054;BMP280;59918;51.280;7.950;2023-05-07T11:47:23;98067.53;;;25.95
72054;BMP280;59918;51.280;7.950;2023-05-07T11:49:54;98065.88;;;25.72
72054;BMP280;59918;51.280;7.950;2023-05-07T11:52:21;98064.00;;;25.33
72054;BMP280;59918;51.280;7.950;2023-05-07T11:54:54;98071.72;;;24.80
72054;BMP280;59918;51.280;7.950;2023-05-07T11:57:20;98067.00;;;24.27
72054;BMP280;59918;51.280;7.950;2023-05-07T11:59:46;98074.72;;;23.77
72054;BMP280;59918;51.280;7.950;2023-05-07T12:02:19;98073.28;;;23.38
72054;BMP280;59918;51.280;7.950;2023-05-07T12:04:44;98083.81;;;23.05
72054;BMP280;59918;51.280;7.950;2023-05-07T12:07:16;98076.19;;;22.75
72054;BMP280;59918;51.280;7.950;2023-05-07T12:09:42;98081.06;;;22.54
72054;BMP280;59918;51.280;7.950;2023-05-07T12:12:08;98084.31;;;22.36
72054;BMP280;59918;51.280;7.950;2023-05-07T12:14:44;98085.97;;;22.22
72054;BMP280;59918;51.280;7.950;2023-05-07T12:17:10;98086.53;;;22.04
72054;BMP280;59918;51.280;7.950;2023-05-07T12:19:42;98097.59;;;21.92
72054;BMP280;59918;51.280;7.950;2023-05-07T12:22:08;98098.44;;;21.77
72054;BMP280;59918;51.280;7.950;2023-05-07T12:24:48;98102.69;;;21.59
72054;BMP280;59918;51.280;7.950;2023-05-07T12:27:17;98104.00;;;21.36
72054;BMP280;59918;51.280;7.950;2023-05-07T12:29:57;98117.63;;;21.19
72054;BMP280;59918;51.280;7.950;2023-05-07T12:32:23;98116.06;;;21.03
72054;BMP280;59918;51.280;7.950;2023-05-07T12:34:54;98118.41;;;20.89
72054;BMP280;59918;51.280;7.950;2023-05-07T12:37:23;98123.88;;;20.73
72054;BMP280;59918;51.280;7.950;2023-05-07T12:40:09;98139.00;;;20.56
72054;BMP280;59918;51.280;7.950;2023-05-07T12:42:40;98142.63;;;20.41
72054;BMP280;59918;51.280;7.950;2023-05-07T12:45:36;98145.16;;;20.21
72054;BMP280;59918;51.280;7.950;2023-05-07T12:48:05;98149.31;;;20.17
72054;BMP280;59918;51.280;7.950;2023-05-07T12:50:31;98151.13;;;20.12
72054;BMP280;59918;51.280;7.950;2023-05-07T12:52:57;98150.06;;;20.08
72054;BMP280;59918;51.280;7.950;2023-05-07T12:55:22;98159.97;;;20.06
72054;BMP280;59918;51.280;7.950;2023-05-07T12:57:52;98162.31;;;20.02
72054;BMP280;59918;51.280;7.950;2023-05-07T13:00:18;98159.16;;;19.95
72054;BMP280;59918;51.280;7.950;2023-05-07T13:02:58;98161.75;;;19.95
72054;BMP280;59918;51.280;7.950;2023-05-07T13:05:26;98169.59;;;19.95
72054;BMP280;59918;51.280;7.950;2023-05-07T13:07:53;98160.69;;;19.91
72054;BMP280;59918;51.280;7.950;2023-05-07T13:10:18;98163.50;;;19.85
72054;BMP280;59918;51.280;7.950;2023-05-07T13:12:43;98164.28;;;19.80
72054;BMP280;59918;51.280;7.950;2023-05-07T13:15:09;98167.91;;;19.79
72054;BMP280;59918;51.280;7.950;2023-05-07T13:17:34;98168.41;;;19.76
72054;BMP280;59918;51.280;7.950;2023-05-07T13:20:06;98183.69;;;19.58
72054;BMP280;59918;51.280;7.950;2023-05-07T13:22:34;98179.06;;;19.34
72054;BMP280;59918;51.280;7.950;2023-05-07T13:25:08;98176.28;;;19.14
72054;BMP280;59918;51.280;7.950;2023-05-07T13:27:33;98180.34;;;19.01
72054;BMP280;59918;51.280;7.950;2023-05-07T13:29:58;98184.91;;;18.89
72054;BMP280;59918;51.280;7.950;2023-05-07T13:32:30;98180.72;;;18.62
72054;BMP280;59918;51.280;7.950;2023-05-07T13:34:55;98183.19;;;18.47
72054;BMP280;59918;51.280;7.950;2023-05-07T13:37:20;98180.16;;;18.33
72054;BMP280;59918;51.280;7.950;2023-05-07T13:39:46;98177.91;;;18.42
72054;BMP280;59918;51.280;7.950;2023-05-07T13:42:11;98172.34;;;18.60
72054;BMP280;59918;51.280;7.950;2023-05-07T13:44:42;98162.69;;;18.81
72054;BMP280;59918;51.280;7.950;2023-05-07T13:47:07;98168.59;;;18.98
72054;BMP280;59918;51.280;7.950;2023-05-07T13:49:33;98163.84;;;19.21
72054;BMP280;59918;51.280;7.950;2023-05-07T13:51:58;98156.81;;;19.58
72054;BMP280;59918;51.280;7.950;2023-05-07T13:54:23;98169.59;;;19.95
72054;BMP280;59918;51.280;7.950;2023-05-07T13:56:51;98165.72;;;20.08
72054;BMP280;59918;51.280;7.950;2023-05-07T13:59:17;98167.47;;;19.92
72054;BMP280;59918;51.280;7.950;2023-05-07T14:01:42;98160.09;;;19.79
72054;BMP280;59918;51.280;7.950;2023-05-07T14:04:07;98168.63;;;19.70
72054;BMP280;59918;51.280;7.950;2023-05-07T14:06:32;98164.44;;;19.64
72054;BMP280;59918;51.280;7.950;2023-05-07T14:08:58;98158.91;;;19.61
72054;BMP280;59918;51.280;7.950;2023-05-07T14:11:23;98158.38;;;19.59
72054;BMP280;59918;51.280;7.950;2023-05-07T14:13:52;98163.06;;;19.57
72054;BMP280;59918;51.280;7.950;2023-05-07T14:16:17;98159.38;;;19.53
72054;BMP280;59918;51.280;7.950;2023-05-07T14:18:42;98169.50;;;19.44
72054;BMP280;59918;51.280;7.950;2023-05-07T14:21:07;98159.53;;;19.37
72054;BMP280;59918;51.280;7.950;2023-05-07T14:23:44;98161.78;;;19.23
72054;BMP280;59918;51.280;7.950;2023-05-07T14:26:10;98169.47;;;19.08
72054;BMP280;59918;51.280;7.950;2023-05-07T14:28:35;98173.88;;;19.03
72054;BMP280;59918;51.280;7.950;2023-05-07T14:31:06;98180.34;;;19.01
72054;BMP280;59918;51.280;7.950;2023-05-07T14:33:31;98168.84;;;18.97
72054;BMP280;59918;51.280;7.950;2023-05-07T14:35:56;98177.16;;;18.94